CYUA

Shingle Point Airport

Yukon Territory, Canada
METAR CYUA 181600Z AUTO 14004KT 100V170 ////SM //// OVC004 M23/M26 A3011
Observed Flight Rules
Dec-18 @ 16:00 UTC (22 minutes ago)
Wind Clouds
140° at 4 knots
  • Overcast at 400' AGL
Temperatures Readings
Current -23°C / -9°F
Dewpoint -26°C / -15°F
Humidity 77%
Altimeter 30.11" Hg
Pressure 1020 hPa
Elevation 38
METAR CYUA 181600Z AUTO 14004KT 100V170 ////SM //// OVC004 M23/M26 A3011
Observed Flight Rules
Dec-18 @ 16:00 UTC
(22 minutes ago)
Wind
140° at 4 knots
Clouds
  • Overcast at 400' AGL
Temperature Dewpoint
-23°C / -9°F -26°C / -15°F
Humidity Altimeter Pressure
77% 30.11" Hg 1020 hPa